Time,TemperatureF,DewpointF,PressureIn,WindDirection,WindDirectionDegrees,WindSpeedMPH,WindSpeedGustMPH,Humidity,HourlyPrecipIn,Conditions,Clouds,dailyrainin,SoftwareType,DateUTC
2013-07-05 00:14:00,68.0,67.1,30.11,SW,225,13.0,-999.0,97,-99.99,,,0.00,Acu-Link.com,2013-07-05 04:14:00,
2013-07-05 00:29:00,68.2,67.0,30.12,SSW,202,8.9,-999.0,96,-99.99,,,0.01,Acu-Link.com,2013-07-05 04:29:00,
2013-07-05 00:45:00,68.2,67.0,30.12,West,270,9.4,-999.0,96,-99.99,,,0.01,Acu-Link.com,2013-07-05 04:45:00,
2013-07-05 01:00:00,67.8,66.6,30.11,WSW,247,9.9,-999.0,96,-99.99,,,0.01,Acu-Link.com,2013-07-05 05:00:00,
2013-07-05 01:15:00,67.8,66.6,30.11,SW,225,4.2,-999.0,96,-99.99,,,0.01,Acu-Link.com,2013-07-05 05:15:00,
2013-07-05 01:30:00,67.5,66.3,30.12,SSW,202,5.3,-999.0,96,-99.99,,,0.01,Acu-Link.com,2013-07-05 05:30:00,
2013-07-05 01:45:00,66.7,65.5,30.12,South,180,4.2,-999.0,96,-99.99,,,0.05,Acu-Link.com,2013-07-05 05:45:00,
2013-07-05 02:00:00,66.2,65.0,30.11,SSE,157,1.1,-999.0,96,-99.99,,,0.05,Acu-Link.com,2013-07-05 06:00:00,
2013-07-05 02:15:00,66.0,64.8,30.11,ESE,112,0.0,-999.0,96,-99.99,,,0.05,Acu-Link.com,2013-07-05 06:15:00,
2013-07-05 02:30:00,66.0,64.8,30.11,South,180,0.0,-999.0,96,-99.99,,,0.05,Acu-Link.com,2013-07-05 06:30:00,
2013-07-05 02:45:00,66.2,65.0,30.11,WSW,247,2.2,-999.0,96,-99.99,,,0.05,Acu-Link.com,2013-07-05 06:45:00,
2013-07-05 03:01:00,66.2,65.0,30.11,SW,225,3.2,-999.0,96,-99.99,,,0.05,Acu-Link.com,2013-07-05 07:01:00,
2013-07-05 03:16:00,66.4,65.5,30.10,SSW,202,3.2,-999.0,97,-99.99,,,0.05,Acu-Link.com,2013-07-05 07:16:00,
2013-07-05 03:31:00,66.4,65.5,30.09,SSW,202,4.7,-999.0,97,-99.99,,,0.05,Acu-Link.com,2013-07-05 07:31:00,
2013-07-05 03:46:00,66.4,65.5,30.09,South,180,2.2,-999.0,97,-99.99,,,0.05,Acu-Link.com,2013-07-05 07:46:00,
2013-07-05 04:01:00,66.4,65.5,30.09,WNW,292,3.2,-999.0,97,-99.99,,,0.05,Acu-Link.com,2013-07-05 08:01:00,
2013-07-05 04:16:00,66.4,65.5,30.09,WSW,247,5.3,-999.0,97,-99.99,,,0.05,Acu-Link.com,2013-07-05 08:16:00,
2013-07-05 04:31:00,66.4,65.5,30.09,WSW,247,4.2,-999.0,97,-99.99,,,0.05,Acu-Link.com,2013-07-05 08:31:00,
2013-07-05 04:47:00,66.6,65.7,30.09,SW,225,6.8,-999.0,97,-99.99,,,0.05,Acu-Link.com,2013-07-05 08:47:00,
2013-07-05 05:02:00,66.6,65.7,30.09,North,0,3.7,-999.0,97,-99.99,,,0.06,Acu-Link.com,2013-07-05 09:02:00,
2013-07-05 05:17:00,66.6,65.7,30.10,North,0,2.2,-999.0,97,-99.99,,,0.10,Acu-Link.com,2013-07-05 09:17:00,
2013-07-05 05:32:00,66.6,65.7,30.11,West,270,6.3,-999.0,97,-99.99,,,0.11,Acu-Link.com,2013-07-05 09:32:00,
2013-07-05 05:47:00,66.6,65.7,30.10,NE,45,3.2,-999.0,97,-99.99,,,0.11,Acu-Link.com,2013-07-05 09:47:00,
2013-07-05 06:17:00,65.8,64.9,30.11,SW,225,2.7,-999.0,97,-99.99,,,0.11,Acu-Link.com,2013-07-05 10:17:00,
2013-07-05 06:32:00,66.0,65.1,30.11,SW,225,4.2,-999.0,97,-99.99,,,0.11,Acu-Link.com,2013-07-05 10:32:00,
2013-07-05 07:02:00,66.4,65.5,30.12,SW,225,5.8,-999.0,97,-99.99,,,0.11,Acu-Link.com,2013-07-05 11:02:00,
2013-07-05 07:33:00,66.6,65.7,30.12,SSW,202,4.7,-999.0,97,-99.99,,,0.11,Acu-Link.com,2013-07-05 11:33:00,
2013-07-05 07:48:00,67.3,66.4,30.11,SE,135,3.2,-999.0,97,-99.99,,,0.11,Acu-Link.com,2013-07-05 11:48:00,
2013-07-05 08:03:00,67.8,66.6,30.13,West,270,5.8,-999.0,96,-99.99,,,0.11,Acu-Link.com,2013-07-05 12:03:00,
2013-07-05 08:18:00,68.2,67.0,30.13,WSW,247,5.3,-999.0,96,-99.99,,,0.11,Acu-Link.com,2013-07-05 12:18:00,
2013-07-05 08:48:00,68.9,67.4,30.14,SSE,157,2.7,-999.0,95,-99.99,,,0.11,Acu-Link.com,2013-07-05 12:48:00,
2013-07-05 09:03:00,68.9,67.4,30.14,WSW,247,6.3,-999.0,95,-99.99,,,0.11,Acu-Link.com,2013-07-05 13:03:00,
2013-07-05 09:18:00,69.4,67.6,30.14,NNE,22,3.7,-999.0,94,-99.99,,,0.11,Acu-Link.com,2013-07-05 13:18:00,
2013-07-05 09:33:00,70.5,68.4,30.14,ESE,112,7.3,-999.0,93,-99.99,,,0.11,Acu-Link.com,2013-07-05 13:33:00,
2013-07-05 09:49:00,71.1,68.7,30.14,SW,225,4.7,-999.0,92,-99.99,,,0.11,Acu-Link.com,2013-07-05 13:49:00,
2013-07-05 10:04:00,71.4,68.6,30.14,WNW,292,4.7,-999.0,91,-99.99,,,0.11,Acu-Link.com,2013-07-05 14:04:00,
2013-07-05 10:19:00,72.1,69.0,30.13,SSW,202,5.3,-999.0,90,-99.99,,,0.11,Acu-Link.com,2013-07-05 14:19:00,
2013-07-05 10:34:00,71.6,68.8,30.14,South,180,6.3,-999.0,91,-99.99,,,0.11,Acu-Link.com,2013-07-05 14:34:00,
2013-07-05 10:49:00,72.5,69.1,30.14,SSE,157,4.2,-999.0,89,-99.99,,,0.11,Acu-Link.com,2013-07-05 14:49:00,
2013-07-05 11:19:00,72.5,69.1,30.14,WSW,247,8.3,-999.0,89,-99.99,,,0.11,Acu-Link.com,2013-07-05 15:19:00,
2013-07-05 11:34:00,73.2,69.4,30.14,SW,225,8.9,-999.0,88,-99.99,,,0.11,Acu-Link.com,2013-07-05 15:34:00,
2013-07-05 11:49:00,73.4,68.9,30.14,SW,225,6.3,-999.0,86,-99.99,,,0.11,Acu-Link.com,2013-07-05 15:49:00,
2013-07-05 12:05:00,73.0,69.2,30.14,SSW,202,4.2,-999.0,88,-99.99,,,0.11,Acu-Link.com,2013-07-05 16:05:00,
2013-07-05 12:20:00,73.8,70.3,30.14,WNW,292,6.8,-999.0,89,-99.99,,,0.11,Acu-Link.com,2013-07-05 16:20:00,
2013-07-05 12:35:00,75.7,71.5,30.14,SW,225,9.9,-999.0,87,-99.99,,,0.11,Acu-Link.com,2013-07-05 16:35:00,
2013-07-05 12:50:00,73.9,70.4,30.13,SW,225,5.8,-999.0,89,-99.99,,,0.11,Acu-Link.com,2013-07-05 16:50:00,
2013-07-05 13:05:00,76.3,71.4,30.13,SSW,202,4.7,-999.0,85,-99.99,,,0.11,Acu-Link.com,2013-07-05 17:05:00,
2013-07-05 13:20:00,74.8,71.0,30.12,WSW,247,4.7,-999.0,88,-99.99,,,0.11,Acu-Link.com,2013-07-05 17:20:00,
2013-07-05 13:35:00,75.7,71.2,30.12,SW,225,5.8,-999.0,86,-99.99,,,0.11,Acu-Link.com,2013-07-05 17:35:00,
2013-07-05 13:50:00,73.9,70.4,30.12,SW,225,7.3,-999.0,89,-99.99,,,0.11,Acu-Link.com,2013-07-05 17:50:00,
2013-07-05 14:05:00,76.6,72.1,30.11,NW,315,5.8,-999.0,86,-99.99,,,0.11,Acu-Link.com,2013-07-05 18:05:00,
2013-07-05 14:21:00,75.7,71.5,30.12,SW,225,2.7,-999.0,87,-99.99,,,0.11,Acu-Link.com,2013-07-05 18:21:00,
2013-07-05 14:36:00,74.7,69.5,30.12,South,180,3.2,-999.0,84,-99.99,,,0.11,Acu-Link.com,2013-07-05 18:36:00,
2013-07-05 14:51:00,77.2,71.6,30.12,WSW,247,3.7,-999.0,83,-99.99,,,0.11,Acu-Link.com,2013-07-05 18:51:00,
2013-07-05 15:06:00,77.4,70.4,30.11,West,270,8.3,-999.0,79,-99.99,,,0.11,Acu-Link.com,2013-07-05 19:06:00,
2013-07-05 15:21:00,80.1,71.8,30.09,SSW,202,6.3,-999.0,76,-99.99,,,0.11,Acu-Link.com,2013-07-05 19:21:00,
2013-07-05 15:36:00,79.5,70.9,30.10,SW,225,5.8,-999.0,75,-99.99,,,0.11,Acu-Link.com,2013-07-05 19:36:00,
2013-07-05 15:51:00,78.8,71.0,30.09,SSW,202,5.8,-999.0,77,-99.99,,,0.11,Acu-Link.com,2013-07-05 19:51:00,
2013-07-05 16:06:00,77.9,70.1,30.10,SW,225,8.3,-999.0,77,-99.99,,,0.11,Acu-Link.com,2013-07-05 20:06:00,
2013-07-05 16:21:00,77.7,70.7,30.08,SSE,157,4.7,-999.0,79,-99.99,,,0.11,Acu-Link.com,2013-07-05 20:21:00,
2013-07-05 16:37:00,79.2,71.7,30.08,SW,225,4.7,-999.0,78,-99.99,,,0.11,Acu-Link.com,2013-07-05 20:37:00,
2013-07-05 16:52:00,81.1,72.0,30.08,WSW,247,3.7,-999.0,74,-99.99,,,0.11,Acu-Link.com,2013-07-05 20:52:00,
2013-07-05 17:07:00,78.3,71.2,30.08,WSW,247,7.8,-999.0,79,-99.99,,,0.11,Acu-Link.com,2013-07-05 21:07:00,
2013-07-05 17:22:00,77.2,71.6,30.08,SW,225,9.9,-999.0,83,-99.99,,,0.11,Acu-Link.com,2013-07-05 21:22:00,
2013-07-05 17:37:00,76.6,71.4,30.07,SW,225,8.3,-999.0,84,-99.99,,,0.11,Acu-Link.com,2013-07-05 21:37:00,
2013-07-05 17:52:00,78.1,71.4,30.07,WSW,247,5.8,-999.0,80,-99.99,,,0.11,Acu-Link.com,2013-07-05 21:52:00,
2013-07-05 18:08:00,78.6,71.5,30.07,East,90,8.3,-999.0,79,-99.99,,,0.11,Acu-Link.com,2013-07-05 22:08:00,
2013-07-05 18:23:00,75.7,69.8,30.08,NW,315,4.7,-999.0,82,-99.99,,,0.11,Acu-Link.com,2013-07-05 22:23:00,
2013-07-05 18:38:00,73.8,69.7,30.09,NNW,337,6.8,-999.0,87,-99.99,,,0.11,Acu-Link.com,2013-07-05 22:38:00,
2013-07-05 18:53:00,73.0,69.6,30.08,WSW,247,4.2,-999.0,89,-99.99,,,0.11,Acu-Link.com,2013-07-05 22:53:00,
2013-07-05 19:08:00,72.9,69.8,30.07,SE,135,4.7,-999.0,90,-99.99,,,0.11,Acu-Link.com,2013-07-05 23:08:00,
2013-07-05 19:23:00,72.7,69.6,30.07,ESE,112,2.2,-999.0,90,-99.99,,,0.11,Acu-Link.com,2013-07-05 23:23:00,
2013-07-05 19:38:00,72.3,69.2,30.07,WSW,247,5.3,-999.0,90,-99.99,,,0.11,Acu-Link.com,2013-07-05 23:38:00,
2013-07-05 19:53:00,72.0,68.9,30.06,SW,225,8.3,-999.0,90,-99.99,,,0.11,Acu-Link.com,2013-07-05 23:53:00,
2013-07-05 20:08:00,71.6,68.5,30.07,SSW,202,3.7,-999.0,90,-99.99,,,0.11,Acu-Link.com,2013-07-06 00:08:00,
2013-07-05 20:24:00,71.1,68.3,30.08,SW,225,7.8,-999.0,91,-99.99,,,0.11,Acu-Link.com,2013-07-06 00:24:00,
2013-07-05 20:39:00,70.7,67.9,30.08,WSW,247,10.4,-999.0,91,-99.99,,,0.11,Acu-Link.com,2013-07-06 00:39:00,
2013-07-05 20:54:00,70.2,68.1,30.09,SW,225,5.3,-999.0,93,-99.99,,,0.11,Acu-Link.com,2013-07-06 00:54:00,
2013-07-05 21:09:00,70.0,67.9,30.09,NNE,22,6.8,-999.0,93,-99.99,,,0.11,Acu-Link.com,2013-07-06 01:09:00,
2013-07-05 21:24:00,70.0,67.9,30.08,SSW,202,7.8,-999.0,93,-99.99,,,0.11,Acu-Link.com,2013-07-06 01:24:00,
2013-07-05 21:39:00,69.4,67.3,30.09,NE,45,1.7,-999.0,93,-99.99,,,0.11,Acu-Link.com,2013-07-06 01:39:00,
2013-07-05 21:54:00,69.1,67.3,30.09,SE,135,0.0,-999.0,94,-99.99,,,0.11,Acu-Link.com,2013-07-06 01:54:00,
2013-07-05 22:09:00,68.7,67.2,30.09,NW,315,1.7,-999.0,95,-99.99,,,0.11,Acu-Link.com,2013-07-06 02:09:00,
2013-07-05 22:24:00,68.5,67.0,30.11,SSW,202,1.7,-999.0,95,-99.99,,,0.11,Acu-Link.com,2013-07-06 02:24:00,
2013-07-05 22:40:00,68.4,66.9,30.10,ENE,67,1.1,-999.0,95,-99.99,,,0.11,Acu-Link.com,2013-07-06 02:40:00,
2013-07-05 22:55:00,68.2,66.7,30.10,SW,225,0.0,-999.0,95,-99.99,,,0.11,Acu-Link.com,2013-07-06 02:55:00,
2013-07-05 23:10:00,67.8,66.3,30.11,ESE,112,0.0,-999.0,95,-99.99,,,0.11,Acu-Link.com,2013-07-06 03:10:00,
2013-07-05 23:25:00,68.0,66.5,30.11,NE,45,1.7,-999.0,95,-99.99,,,0.11,Acu-Link.com,2013-07-06 03:25:00,
2013-07-05 23:40:00,67.8,66.3,30.11,East,90,3.7,-999.0,95,-99.99,,,0.11,Acu-Link.com,2013-07-06 03:40:00,
2013-07-05 23:55:00,67.6,66.1,30.11,ENE,67,0.0,-999.0,95,-99.99,,,0.11,Acu-Link.com,2013-07-06 03:55:00,